Terminal Aerodrome Forecast
Issued by NWS

Home | Current Version | Previous Version | Text Only | Print | Product List | Glossary On
Versions: 1 2 3 4 5 6 7 8 9 10 11 12 13 14 15 16 17 18 19 20 21 22
000
FTUS45 KFGZ 202335
TAFSEZ
TAF
KSEZ 202335Z 2100/2124 16010G20KT P6SM SCT005 OVC012
      TEMPO 2100/2104 6SM -RA BR OVC005
     FM210400 18012G22KT 1/2SM RA FG VV001
     FM210700 22010G18KT 1/2SM -RA FG VV002
     FM211500 22010G18KT 6SM BR BKN010 OVC020
      TEMPO 2118/2122 3SM -RASN OVC010=

USA.gov is the U.S. government's official web portal to all federal, state and local government web resources and services.